Mehtap Bayraktar — TCPB — position and weather

sailwx.info

Track history (hours):
 
Tides and Currents Weather Stations Pressure Air Temp Water Temp Dewpoint Dewpoint Depression Visibility Wind Speed Wind Dir Waves Ship Positions

Mehtap Bayraktar

Last reported at 2015-Mar-22 05:23 UTC. Time now 2015-Mar-30 13:01 UTC.
Position N 35°57' W 005°35'.
Warning: this ship's position is 8 days out of date.

Length 114 m; draft 6.9 m.

Type: Ship (hazmat cat A). MMSI: 271000578.

Date/timePositionNaut miles runAvg speedWind from/ knotsBaromVisibWave heightAir tempDewpointWater temp
2015-Mar-22 05:23N 35°57' W 005°35'8 9.2
2015-Mar-22 04:33N 35°60' W 005°26'9 9.1
2015-Mar-22 03:33N 36°02' W 005°15'21211.7
2015-Mar-21 09:28N 37°10' W 001°06'1111.7
2015-Mar-21 08:33N 37°17' W 000°56'1211.8
2015-Mar-21 07:33N 37°26' W 000°45'1212.2
2015-Mar-21 06:33N 37°34' W 000°34'1211.7
2015-Mar-21 05:33N 37°44' W 000°26'1211.6
2015-Mar-21 04:33N 37°54' W 000°18'13312.0
2015-Mar-20 17:30N 39°49' E 001°06'1111.5
2015-Mar-20 16:33N 39°59' E 001°13'1212.5
2015-Mar-20 15:33N 40°10' E 001°20'1612.2
2015-Mar-20 14:15N 40°24' E 001°29'811.2
2015-Mar-20 13:30N 40°32' E 001°34'1111.1
2015-Mar-20 12:33N 40°41' E 001°41'1111.1
2015-Mar-20 11:32N 40°50' E 001°49'1211.0
2015-Mar-20 10:29N 41°00' E 001°57'1212.1
2015-Mar-20 09:30N 41°10' E 002°06'8 1.0
2015-Mar-20 01:06N 41°18' E 002°09'0 0.0
2015-Mar-19 23:12N 41°18' E 002°09'1 0.5
2015-Mar-19 21:32N 41°19' E 002°10'1 0.6
2015-Mar-19 19:33N 41°20' E 002°11'0 0.0
2015-Mar-19 15:03N 41°20' E 002°11'5 1.4
2015-Mar-19 11:05N 41°15' E 002°08'7 8.5
2015-Mar-19 10:13N 41°09' E 002°02'6 9.0
2015-Mar-19 09:33N 41°04' E 001°58'10 9.8
2015-Mar-19 08:33N 40°56' E 001°51'10 9.9
2015-Mar-19 07:32N 40°48' E 001°42'10 9.7
2015-Mar-19 06:33N 40°41' E 001°34'9 9.1
2015-Mar-19 05:33N 40°35' E 001°25'10 9.6
2015-Mar-19 04:33N 40°30' E 001°14'10 9.9
2015-Mar-19 03:33N 40°25' E 001°03'55 2.2
2015-Mar-18 02:23N 39°32' E 001°23'911.2
2015-Mar-18 01:33N 39°28' E 001°34'1412.2
2015-Mar-18 00:25N 39°23' E 001°50'1011.7
2015-Mar-17 23:33N 39°19' E 002°03'1312.6
2015-Mar-17 22:33N 39°14' E 002°18'1212.4
2015-Mar-17 21:33N 39°09' E 002°32'1212.1
2015-Mar-17 20:33N 39°05' E 002°47'1212.3
2015-Mar-17 19:33N 39°00' E 003°02'1212.3
2015-Mar-17 18:33N 38°57' E 003°17'1212.4
2015-Mar-17 17:33N 38°54' E 003°32'1312.3
2015-Mar-17 16:29N 38°51' E 003°49'44811.8
2015-Mar-16 02:30N 36°57' E 012°58'2712.7
2015-Mar-16 00:24N 36°47' E 013°29'1112.4
2015-Mar-15 23:33N 36°44' E 013°41'1212.3
2015-Mar-15 22:33N 36°39' E 013°55'1212.3
2015-Mar-15 21:33N 36°35' E 014°10'1312.7
2015-Mar-15 20:33N 36°31' E 014°25'1312.6
2015-Mar-15 19:30N 36°26' E 014°40'  
Track history (hours):
 
Tides and Currents Weather Stations Pressure Air Temp Water Temp Dewpoint Dewpoint Depression Visibility Wind Speed Wind Dir Waves Ship Positions

Mehtap Bayraktar

Last reported at 2015-Mar-22 05:23 UTC. Time now 2015-Mar-30 13:01 UTC.
Position N 35°57' W 005°35'.
Warning: this ship's position is 8 days out of date.

Length 114 m; draft 6.9 m.

Type: Ship (hazmat cat A). MMSI: 271000578.

Date/timePositionNaut miles runAvg speedWind from/ knotsBaromVisibWave heightAir tempDewpointWater temp
2015-Mar-22 05:23N 35°57' W 005°35'8 9.2
2015-Mar-22 04:33N 35°60' W 005°26'9 9.1
2015-Mar-22 03:33N 36°02' W 005°15'21211.7
2015-Mar-21 09:28N 37°10' W 001°06'1111.7
2015-Mar-21 08:33N 37°17' W 000°56'1211.8
2015-Mar-21 07:33N 37°26' W 000°45'1212.2
2015-Mar-21 06:33N 37°34' W 000°34'1211.7
2015-Mar-21 05:33N 37°44' W 000°26'1211.6
2015-Mar-21 04:33N 37°54' W 000°18'13312.0
2015-Mar-20 17:30N 39°49' E 001°06'1111.5
2015-Mar-20 16:33N 39°59' E 001°13'1212.5
2015-Mar-20 15:33N 40°10' E 001°20'1612.2
2015-Mar-20 14:15N 40°24' E 001°29'811.2
2015-Mar-20 13:30N 40°32' E 001°34'1111.1
2015-Mar-20 12:33N 40°41' E 001°41'1111.1
2015-Mar-20 11:32N 40°50' E 001°49'1211.0
2015-Mar-20 10:29N 41°00' E 001°57'1212.1
2015-Mar-20 09:30N 41°10' E 002°06'8 1.0
2015-Mar-20 01:06N 41°18' E 002°09'0 0.0
2015-Mar-19 23:12N 41°18' E 002°09'1 0.5
2015-Mar-19 21:32N 41°19' E 002°10'1 0.6
2015-Mar-19 19:33N 41°20' E 002°11'0 0.0
2015-Mar-19 15:03N 41°20' E 002°11'5 1.4
2015-Mar-19 11:05N 41°15' E 002°08'7 8.5
2015-Mar-19 10:13N 41°09' E 002°02'6 9.0
2015-Mar-19 09:33N 41°04' E 001°58'10 9.8
2015-Mar-19 08:33N 40°56' E 001°51'10 9.9
2015-Mar-19 07:32N 40°48' E 001°42'10 9.7
2015-Mar-19 06:33N 40°41' E 001°34'9 9.1
2015-Mar-19 05:33N 40°35' E 001°25'10 9.6
2015-Mar-19 04:33N 40°30' E 001°14'10 9.9
2015-Mar-19 03:33N 40°25' E 001°03'55 2.2
2015-Mar-18 02:23N 39°32' E 001°23'911.2
2015-Mar-18 01:33N 39°28' E 001°34'1412.2
2015-Mar-18 00:25N 39°23' E 001°50'1011.7
2015-Mar-17 23:33N 39°19' E 002°03'1312.6
2015-Mar-17 22:33N 39°14' E 002°18'1212.4
2015-Mar-17 21:33N 39°09' E 002°32'1212.1
2015-Mar-17 20:33N 39°05' E 002°47'1212.3
2015-Mar-17 19:33N 39°00' E 003°02'1212.3
2015-Mar-17 18:33N 38°57' E 003°17'1212.4
2015-Mar-17 17:33N 38°54' E 003°32'1312.3
2015-Mar-17 16:29N 38°51' E 003°49'44811.8
2015-Mar-16 02:30N 36°57' E 012°58'2712.7
2015-Mar-16 00:24N 36°47' E 013°29'1112.4
2015-Mar-15 23:33N 36°44' E 013°41'1212.3
2015-Mar-15 22:33N 36°39' E 013°55'1212.3
2015-Mar-15 21:33N 36°35' E 014°10'1312.7
2015-Mar-15 20:33N 36°31' E 014°25'1312.6
2015-Mar-15 19:30N 36°26' E 014°40'  

Dump ship's entire track history